createdAt,value
2014-08-15T09:03:26.764Z,739
2014-08-15T09:03:44.732Z,739
2014-08-15T09:04:03.217Z,739
2014-08-15T09:04:21.625Z,738
2014-08-15T09:04:39.484Z,739
2014-08-15T09:04:57.922Z,739
2014-08-15T09:05:16.314Z,738
2014-08-15T09:05:35.080Z,738
2014-08-15T09:05:53.455Z,739
2014-08-15T09:06:11.283Z,739
2014-08-15T09:06:29.238Z,738
2014-08-15T09:06:47.035Z,738
2014-08-15T09:07:05.535Z,738
2014-08-15T09:07:22.975Z,738
2014-08-15T09:07:40.740Z,738
2014-08-15T09:07:59.475Z,739
2014-08-15T09:08:17.256Z,739
2014-08-15T09:08:35.743Z,739
2014-08-15T09:08:54.103Z,738
2014-08-15T09:09:11.884Z,738
2014-08-15T09:09:30.230Z,738
2014-08-15T09:09:48.027Z,738
2014-08-15T09:10:05.933Z,738
2014-08-15T09:10:24.323Z,739
2014-08-15T09:10:42.465Z,739
2014-08-15T09:11:01.153Z,739
2014-08-15T09:11:19.340Z,738
2014-08-15T09:11:38.342Z,739
2014-08-15T09:11:57.201Z,739
2014-08-15T09:12:15.514Z,739
2014-08-15T09:12:34.172Z,738
2014-08-15T09:12:52.719Z,739
2014-08-15T09:13:10.485Z,739
2014-08-15T09:13:28.891Z,739
2014-08-15T09:13:47.596Z,739
2014-08-15T09:14:06.143Z,738
2014-08-15T09:14:24.580Z,739
2014-08-15T09:14:41.926Z,739
2014-08-15T09:14:59.051Z,739
2014-08-15T09:15:17.504Z,739
2014-08-15T09:15:35.895Z,739
2014-08-15T09:15:53.616Z,739
2014-08-15T09:16:11.975Z,739
2014-08-15T09:16:29.741Z,739
2014-08-15T09:16:47.540Z,739
2014-08-15T09:17:06.165Z,739
2014-08-15T09:17:24.258Z,739
2014-08-15T09:17:43.323Z,739
2014-08-15T09:18:01.510Z,739
2014-08-15T09:18:19.588Z,739
2014-08-15T09:18:37.557Z,740
2014-08-15T09:18:56.169Z,739
2014-08-15T09:19:14.825Z,739
2014-08-15T09:19:33.497Z,739
2014-08-15T09:19:52.046Z,739
2014-08-15T09:20:10.530Z,739
2014-08-15T09:20:29.014Z,739
2014-08-15T09:20:46.251Z,739
2014-08-15T09:21:04.673Z,739
2014-08-15T09:21:21.829Z,739
2014-08-15T09:21:40.313Z,739
2014-08-15T09:21:58.346Z,739
2014-08-15T09:22:16.159Z,739
2014-08-15T09:22:33.612Z,739
2014-08-15T09:22:51.411Z,739
2014-08-15T09:23:09.286Z,739
2014-08-15T09:23:27.255Z,739
2014-08-15T09:23:45.116Z,739
2014-08-15T09:24:03.600Z,739
2014-08-15T09:24:21.616Z,739
2014-08-15T09:24:38.897Z,739
2014-08-15T09:24:56.649Z,739
2014-08-15T09:25:14.618Z,739
2014-08-15T09:25:33.071Z,739
2014-08-15T09:25:51.448Z,739
2014-08-15T09:26:09.808Z,739
2014-08-15T09:26:27.276Z,739
2014-08-15T09:26:45.699Z,739
2014-08-15T09:27:04.105Z,739
2014-08-15T09:27:22.637Z,739
2014-08-15T09:27:40.449Z,739
2014-08-15T09:28:30.248Z,739
2014-08-15T09:28:48.781Z,740
2014-08-15T09:29:06.188Z,739
2014-08-15T09:29:24.359Z,739
2014-08-15T09:29:43.094Z,739
2014-08-15T09:30:01.736Z,739
2014-08-15T09:30:20.393Z,739
2014-08-15T09:30:38.596Z,739
2014-08-15T09:30:57.254Z,739
2014-08-15T09:31:15.520Z,739
2014-08-15T09:31:34.426Z,738
2014-08-15T09:31:53.194Z,738
2014-08-15T09:32:12.022Z,738
2014-08-15T09:32:30.553Z,739
2014-08-15T09:32:49.383Z,739
2014-08-15T09:33:07.399Z,739
2014-08-15T09:33:25.977Z,739
2014-08-15T09:33:43.805Z,739
2014-08-15T09:34:02.244Z,738
2014-08-15T09:34:20.635Z,739
2014-08-15T09:34:38.432Z,738
2014-08-15T09:34:56.184Z,739
2014-08-15T09:35:14.481Z,739
2014-08-15T09:35:34.621Z,739
2014-08-15T09:35:54.231Z,739
2014-08-15T09:36:14.123Z,739
2014-08-15T09:36:33.889Z,739
2014-08-15T09:36:53.733Z,739
2014-08-15T09:37:14.204Z,739
2014-08-15T09:37:34.125Z,739
2014-08-15T09:37:54.063Z,739
2014-08-15T09:38:13.816Z,739
2014-08-15T09:38:32.832Z,739
2014-08-15T09:38:52.144Z,739
2014-08-15T09:39:11.176Z,739
2014-08-15T09:39:30.879Z,739
2014-08-15T09:39:49.973Z,739
2014-08-15T09:40:08.817Z,739
2014-08-15T09:40:28.039Z,739
2014-08-15T09:40:47.992Z,739
2014-08-15T09:41:07.382Z,739
2014-08-15T09:41:26.259Z,739
2014-08-15T09:41:44.900Z,739
2014-08-15T09:42:03.400Z,739
2014-08-15T09:42:21.135Z,739
2014-08-15T09:42:38.901Z,739
2014-08-15T09:42:57.245Z,739
2014-08-15T09:43:15.604Z,739
2014-08-15T09:43:33.981Z,739
2014-08-15T09:43:51.747Z,739
2014-08-15T09:44:10.091Z,739
2014-08-15T09:44:28.656Z,739
2014-08-15T09:44:47.125Z,738
2014-08-15T09:45:05.500Z,738
2014-08-15T09:45:22.626Z,738
2014-08-15T09:45:40.751Z,738
2014-08-15T09:45:58.657Z,738
2014-08-15T09:46:17.063Z,738
2014-08-15T09:46:34.784Z,738
2014-08-15T09:46:53.612Z,738
2014-08-15T09:47:11.518Z,738
2014-08-15T09:47:30.005Z,738
2014-08-15T09:47:48.661Z,738
2014-08-15T09:48:06.661Z,738
2014-08-15T09:48:25.662Z,737
2014-08-15T09:48:44.334Z,737
2014-08-15T09:49:01.803Z,737
2014-08-15T09:49:18.568Z,738
2014-08-15T10:08:15.871Z,774
2014-08-15T10:08:33.921Z,774
2014-08-15T10:08:52.374Z,773
2014-08-15T10:09:10.327Z,774
2014-08-15T10:09:28.188Z,774
2014-08-15T10:09:46.204Z,774
2014-08-15T10:10:04.813Z,774
2014-08-15T10:10:23.298Z,774
2014-08-15T10:10:41.097Z,774
2014-08-15T10:10:58.800Z,773
2014-08-15T10:11:16.659Z,774
2014-08-15T10:11:35.128Z,774
2014-08-15T10:11:53.021Z,774
2014-08-15T10:12:10.802Z,774
2014-08-15T10:12:28.083Z,774
2014-08-15T10:12:46.006Z,773
2014-08-15T10:13:03.725Z,774
2014-08-15T10:13:20.881Z,773
2014-08-15T10:13:38.678Z,774
2014-08-15T10:13:56.617Z,774
2014-08-15T10:14:15.133Z,774
2014-08-15T10:14:32.539Z,774
2014-08-15T10:14:51.104Z,774
2014-08-15T10:15:09.119Z,774
2014-08-15T10:15:27.526Z,773
2014-08-15T10:15:45.654Z,773
2014-08-15T10:16:03.607Z,773
2014-08-15T10:16:22.169Z,773
2014-08-15T10:16:40.075Z,773
2014-08-15T10:16:57.827Z,773
2014-08-15T10:17:15.077Z,774
2014-08-15T10:17:33.468Z,773
2014-08-15T10:17:52.173Z,773
2014-08-15T10:18:11.126Z,773
2014-08-15T10:18:29.798Z,773
2014-08-15T10:18:48.190Z,773
2014-08-15T10:19:06.940Z,773
2014-08-15T10:19:24.909Z,773
2014-08-15T10:19:43.971Z,773
2014-08-15T10:20:01.411Z,773
2014-08-15T10:20:18.457Z,773
2014-08-15T10:20:36.379Z,773
2014-08-15T10:20:54.789Z,773
2014-08-15T10:21:13.210Z,773
2014-08-15T10:21:30.460Z,773
2014-08-15T10:21:48.976Z,773
2014-08-15T10:22:07.399Z,773
2014-08-15T10:22:25.899Z,773
2014-08-15T10:22:43.165Z,773
2014-08-15T10:23:01.573Z,773
2014-08-15T10:23:19.323Z,773
2014-08-15T10:23:37.823Z,773
2014-08-15T10:23:55.715Z,773
2014-08-15T10:24:14.075Z,773
2014-08-15T10:24:31.840Z,773
2014-08-15T10:24:50.215Z,773
2014-08-15T10:25:07.967Z,773
2014-08-15T10:25:26.483Z,773
2014-08-15T10:25:44.858Z,773
2014-08-15T10:26:03.251Z,773
2014-08-15T10:26:21.282Z,773
2014-08-15T10:26:39.173Z,773
2014-08-15T10:26:57.800Z,773
2014-08-15T10:27:16.362Z,773
2014-08-15T10:27:34.175Z,773
2014-08-15T10:27:51.940Z,773
2014-08-15T10:28:10.302Z,773
2014-08-15T10:28:27.505Z,773
2014-08-15T10:28:46.364Z,773
2014-08-15T10:29:05.007Z,773
2014-08-15T10:29:23.725Z,773
2014-08-15T10:29:42.444Z,773
2014-08-15T10:30:01.148Z,773
2014-08-15T10:30:18.867Z,773
2014-08-15T10:30:37.555Z,773
2014-08-15T10:30:56.336Z,773
2014-08-15T10:31:14.448Z,773
2014-08-15T10:31:33.026Z,773
2014-08-15T10:31:51.558Z,773
2014-08-15T10:32:09.528Z,773
2014-08-15T10:32:28.075Z,773
2014-08-15T10:33:18.812Z,773
2014-08-15T10:33:37.405Z,773
2014-08-15T10:33:55.343Z,773
2014-08-15T10:34:13.892Z,773
2014-08-15T10:34:32.298Z,773
2014-08-15T10:34:50.673Z,773
2014-08-15T10:35:09.034Z,773
2014-08-15T10:35:29.581Z,773
2014-08-15T10:35:49.425Z,773
2014-08-15T10:36:09.380Z,773
2014-08-15T10:36:29.958Z,773
2014-08-15T10:36:49.271Z,773
2014-08-15T10:37:09.929Z,773
2014-08-15T10:37:30.648Z,773
2014-08-15T10:37:51.570Z,773
2014-08-15T10:38:11.992Z,773
2014-08-15T10:38:32.727Z,773
2014-08-15T10:38:50.664Z,773
2014-08-15T10:39:08.758Z,773
2014-08-15T10:39:26.791Z,773
2014-08-15T10:39:45.510Z,773
2014-08-15T10:40:03.713Z,773
2014-08-15T10:40:21.388Z,773
2014-08-15T10:40:38.560Z,773
2014-08-15T10:40:56.326Z,773
2014-08-15T10:41:14.138Z,773
2014-08-15T10:41:32.514Z,773
2014-08-15T10:41:49.702Z,773
2014-08-15T10:42:07.670Z,773
2014-08-15T10:42:24.876Z,773
2014-08-15T10:42:41.970Z,773
2014-08-15T10:42:59.236Z,773
2014-08-15T10:43:17.033Z,773
2014-08-15T10:43:35.377Z,773
2014-08-15T10:43:53.127Z,773
2014-08-15T10:44:11.596Z,773
2014-08-15T10:44:29.551Z,773
2014-08-15T10:44:47.614Z,773
2014-08-15T10:45:05.989Z,773
2014-08-15T10:45:23.725Z,773
2014-08-15T10:45:41.460Z,773
2014-08-15T10:45:59.491Z,773
2014-08-15T10:46:17.944Z,773
2014-08-15T10:46:35.696Z,773
2014-08-15T10:46:52.883Z,773
2014-08-15T10:47:10.055Z,773
2014-08-15T10:47:28.167Z,773
2014-08-15T10:47:46.714Z,773
2014-08-15T10:48:04.792Z,773
2014-08-15T10:48:22.872Z,773
2014-08-15T10:48:40.997Z,773
2014-08-15T10:48:59.044Z,773
2014-08-15T10:49:17.731Z,773
2014-08-15T10:49:35.889Z,773
2014-08-15T10:49:54.093Z,773
2014-08-15T10:50:11.936Z,773
2014-08-15T10:50:30.407Z,773
2014-08-15T10:50:47.657Z,773
2014-08-15T10:51:05.579Z,773
2014-08-15T10:51:22.860Z,773
2014-08-15T10:51:40.128Z,773
2014-08-15T10:51:57.472Z,773
2014-08-15T10:52:15.284Z,773
2014-08-15T10:52:33.692Z,773
2014-08-15T10:52:52.067Z,773
2014-08-15T10:53:10.474Z,773
2014-08-15T10:53:28.210Z,773
2014-08-15T11:44:13.962Z,428
2014-08-15T11:44:29.822Z,429
2014-08-15T11:44:45.556Z,429
2014-08-15T11:45:02.042Z,429
2014-08-15T11:45:17.902Z,429
2014-08-15T11:45:33.777Z,429
2014-08-15T11:45:50.261Z,428
2014-08-15T11:46:06.123Z,429
2014-08-15T11:46:23.733Z,428
2014-08-15T11:46:42.123Z,429
2014-08-15T11:46:58.610Z,429
2014-08-15T11:47:15.735Z,428
2014-08-15T11:47:32.844Z,428
2014-08-15T11:47:48.719Z,428
2014-08-15T11:48:05.205Z,429
2014-08-15T11:48:22.314Z,429
2014-08-15T11:48:38.189Z,430
2014-08-15T11:48:55.298Z,430
2014-08-15T11:49:11.175Z,431
2014-08-15T11:49:27.519Z,431
2014-08-15T11:49:44.019Z,429
2014-08-15T11:50:01.771Z,431
2014-08-15T11:50:18.255Z,431
2014-08-15T11:50:34.115Z,432
2014-08-15T11:50:51.240Z,432
2014-08-15T11:51:08.992Z,432
2014-08-15T11:51:25.492Z,432
2014-08-15T11:51:43.101Z,433
2014-08-15T11:52:00.088Z,432
2014-08-15T11:52:15.963Z,433
2014-08-15T11:52:33.713Z,433
2014-08-15T11:52:50.197Z,433
2014-08-15T11:53:06.058Z,434
2014-08-15T11:53:22.418Z,434
2014-08-15T11:53:39.402Z,434
2014-08-15T11:53:55.918Z,435
2014-08-15T11:54:13.013Z,435
2014-08-15T11:54:30.138Z,435
2014-08-15T11:54:47.904Z,434
2014-08-15T11:55:03.625Z,356
2014-08-15T11:55:19.359Z,433
2014-08-15T11:55:35.250Z,434
2014-08-15T11:55:51.734Z,434
2014-08-15T11:56:08.236Z,434
2014-08-15T11:56:25.346Z,433
2014-08-15T11:56:41.221Z,432
2014-08-15T11:56:56.940Z,431
2014-08-15T11:57:12.675Z,429
2014-08-15T11:57:28.565Z,428
2014-08-15T11:57:45.690Z,426
2014-08-15T11:58:02.067Z,424
2014-08-15T11:58:18.552Z,423
2014-08-15T11:58:35.052Z,422
2014-08-15T11:58:50.911Z,420
2014-08-15T11:59:08.555Z,420
2014-08-15T11:59:24.289Z,419
2014-08-15T11:59:40.648Z,418
2014-08-15T11:59:58.400Z,418
2014-08-15T12:00:15.510Z,417
2014-08-15T12:00:31.869Z,417
2014-08-15T12:00:47.729Z,416
2014-08-15T12:01:03.480Z,415
2014-08-15T12:01:19.339Z,414
2014-08-15T12:01:35.839Z,414
2014-08-15T12:01:52.964Z,413
2014-08-15T12:02:09.450Z,413
2014-08-15T12:02:25.950Z,412
2014-08-15T12:02:42.450Z,412
2014-08-15T12:02:58.310Z,412
2014-08-15T12:03:14.202Z,411
2014-08-15T12:03:30.687Z,411
2014-08-15T12:03:46.546Z,411
2014-08-15T12:04:02.421Z,411
2014-08-15T12:04:19.565Z,411
2014-08-15T12:04:36.049Z,411
2014-08-15T12:04:52.533Z,411
2014-08-15T12:05:08.408Z,411
2014-08-15T12:05:24.895Z,412
2014-08-15T12:05:40.754Z,412
2014-08-15T12:05:57.910Z,412
2014-08-15T12:06:15.739Z,412
2014-08-15T12:06:32.100Z,412
2014-08-15T12:06:49.225Z,412
2014-08-15T12:07:05.584Z,412
2014-08-15T12:07:22.725Z,412
2014-08-15T12:07:39.821Z,412
2014-08-15T12:07:56.821Z,413
2014-08-15T12:08:15.196Z,414
2014-08-15T12:08:32.946Z,415
2014-08-15T12:08:48.824Z,416
2014-08-15T12:09:05.183Z,417
2014-08-15T12:09:21.683Z,418
2014-08-15T12:09:37.542Z,419
2014-08-15T12:09:54.044Z,419
2014-08-15T12:10:10.529Z,420
2014-08-15T12:10:28.279Z,421
2014-08-15T12:10:44.826Z,423
2014-08-15T12:11:01.186Z,421
2014-08-15T12:11:17.686Z,422
2014-08-15T12:11:35.295Z,422
2014-08-15T12:11:51.795Z,424
2014-08-15T12:12:09.407Z,426
2014-08-15T12:12:27.032Z,427
2014-08-15T12:12:43.391Z,428
2014-08-15T12:13:00.516Z,430
2014-08-15T12:13:17.004Z,431
2014-08-15T12:13:33.504Z,433
2014-08-15T12:13:49.847Z,427
2014-08-15T12:14:05.582Z,437
2014-08-15T12:14:21.943Z,439
2014-08-15T12:14:37.677Z,440
2014-08-15T12:14:54.037Z,441
2014-08-15T12:15:10.396Z,443
2014-08-15T12:15:26.758Z,444
2014-08-15T12:15:42.617Z,445
2014-08-15T12:15:59.742Z,446
2014-08-15T12:16:17.492Z,447
2014-08-15T12:16:33.994Z,448
2014-08-15T12:16:49.728Z,449
2014-08-15T12:17:07.338Z,445
2014-08-15T12:17:24.463Z,449
2014-08-15T12:17:40.324Z,450
2014-08-15T12:17:57.449Z,452
2014-08-15T12:18:14.574Z,454
2014-08-15T12:18:31.699Z,455
2014-08-15T12:18:48.060Z,457
2014-08-15T12:19:06.435Z,459
2014-08-15T12:19:23.420Z,459
2014-08-15T12:19:39.297Z,461
2014-08-15T12:19:55.641Z,462
2014-08-15T12:20:11.375Z,464
2014-08-15T12:20:29.125Z,465
2014-08-15T12:20:45.611Z,466
2014-08-15T12:21:02.596Z,467
2014-08-15T12:21:19.721Z,468
2014-08-15T12:21:36.846Z,468
2014-08-15T12:21:53.973Z,468
2014-08-15T12:22:09.691Z,469
2014-08-15T12:22:26.191Z,470
2014-08-15T12:22:43.941Z,470
2014-08-15T12:23:00.443Z,471
2014-08-15T12:23:16.303Z,472
2014-08-15T12:23:33.428Z,473
2014-08-15T12:23:49.287Z,473
2014-08-15T12:24:07.039Z,475
2014-08-15T12:24:22.899Z,475
2014-08-15T12:24:40.024Z,475
2014-08-15T12:24:57.149Z,475
2014-08-15T12:25:13.011Z,475
2014-08-15T12:25:30.761Z,474
2014-08-15T12:25:47.261Z,474
2014-08-15T12:26:02.995Z,473
2014-08-15T12:26:19.982Z,473
2014-08-15T12:26:36.466Z,472
2014-08-15T12:26:52.825Z,472
2014-08-15T12:27:08.560Z,472
2014-08-15T12:27:24.421Z,472
2014-08-15T12:27:42.171Z,472
2014-08-15T12:27:59.781Z,472
2014-08-15T12:28:16.908Z,471
2014-08-15T12:28:34.533Z,473
2014-08-15T12:28:51.642Z,474
2014-08-15T12:29:08.767Z,475
2014-08-15T12:29:25.894Z,476
2014-08-15T12:29:42.378Z,476
2014-08-15T12:29:58.863Z,477
2014-08-15T12:30:14.722Z,478
2014-08-15T12:30:31.224Z,480
2014-08-15T12:30:48.333Z,482
2014-08-15T12:31:06.083Z,484
2014-08-15T12:31:22.568Z,485
2014-08-15T12:31:39.554Z,487
2014-08-15T12:31:56.679Z,489
2014-08-15T12:32:13.179Z,491
2014-08-15T12:32:30.929Z,493
2014-08-15T12:32:48.681Z,495
2014-08-15T12:33:04.541Z,497
2014-08-15T12:33:22.150Z,500
2014-08-15T12:33:39.900Z,503
2014-08-15T12:33:57.652Z,507
2014-08-15T12:34:13.511Z,512
2014-08-15T12:34:29.871Z,516
2014-08-15T12:34:47.607Z,522
2014-08-15T12:35:04.107Z,540
2014-08-15T12:35:20.591Z,558
2014-08-15T12:35:37.716Z,565
2014-08-15T12:35:54.079Z,564
2014-08-15T12:36:09.813Z,570
2014-08-15T12:36:26.298Z,567
2014-08-15T12:36:43.923Z,579
2014-08-15T12:37:00.409Z,575
2014-08-15T12:37:17.534Z,582
2014-08-15T12:37:34.018Z,567
2014-08-15T12:37:51.143Z,557
2014-08-15T12:38:07.005Z,558
2014-08-15T12:38:22.864Z,576
2014-08-15T12:38:38.739Z,566
2014-08-15T12:38:55.849Z,598
2014-08-15T12:39:11.724Z,589
2014-08-15T12:39:28.209Z,610
2014-08-15T12:39:44.568Z,611
2014-08-15T12:40:00.305Z,612
2014-08-15T12:40:17.430Z,612
2014-08-15T12:40:33.148Z,586
2014-08-15T12:40:49.648Z,580
2014-08-15T12:41:07.400Z,579
2014-08-15T12:41:23.885Z,579
2014-08-15T12:41:40.369Z,591
2014-08-15T12:41:57.494Z,616
2014-08-15T12:42:14.480Z,617
2014-08-15T12:42:30.215Z,615
2014-08-15T12:42:47.965Z,615
2014-08-15T12:43:05.092Z,613
2014-08-15T12:43:22.201Z,609
2014-08-15T12:43:38.561Z,609
2014-08-15T12:43:55.686Z,601
2014-08-15T12:44:12.172Z,599
2014-08-15T12:44:28.672Z,563
2014-08-15T12:44:45.156Z,557
2014-08-15T12:45:02.783Z,557
2014-08-15T12:45:20.533Z,554
2014-08-15T12:45:36.893Z,553
2014-08-15T12:45:54.018Z,552
2014-08-15T12:46:11.129Z,548
2014-08-15T12:46:28.254Z,544
2014-08-15T12:46:46.004Z,541
2014-08-15T12:47:02.504Z,538
2014-08-15T12:47:19.615Z,535
2014-08-15T12:47:36.615Z,532
2014-08-15T12:47:53.725Z,528
2014-08-15T12:48:09.459Z,525
2014-08-15T12:48:27.211Z,518
2014-08-15T12:48:43.711Z,513
2014-08-15T12:49:00.196Z,507
2014-08-15T12:49:17.180Z,502
2014-08-15T12:49:34.307Z,497
2014-08-15T12:49:52.057Z,492
2014-08-15T12:50:08.416Z,485
2014-08-15T12:50:24.776Z,482
2014-08-15T12:50:41.138Z,477
2014-08-15T12:50:58.747Z,472
2014-08-15T12:51:15.232Z,467
2014-08-15T12:51:32.357Z,463
2014-08-15T12:51:49.484Z,460
2014-08-15T12:52:05.968Z,456
2014-08-15T12:52:21.828Z,453
2014-08-15T12:52:38.187Z,449
2014-08-15T12:52:55.939Z,446
2014-08-15T12:53:12.298Z,444
2014-08-15T12:53:28.798Z,440
2014-08-15T12:53:44.658Z,437
2014-08-15T12:54:01.644Z,434
2014-08-15T12:54:18.769Z,430
2014-08-15T12:54:35.128Z,426
2014-08-15T12:54:51.488Z,423
2014-08-15T12:55:07.349Z,420
2014-08-15T12:55:23.084Z,416
2014-08-15T12:55:39.568Z,414
2014-08-15T12:55:55.427Z,410
2014-08-15T12:56:11.789Z,407
2014-08-15T12:56:27.523Z,404
2014-08-15T12:56:43.382Z,402
2014-08-15T12:56:59.867Z,399
2014-08-15T12:57:16.853Z,398
2014-08-15T12:57:32.713Z,397
2014-08-15T12:57:49.697Z,396
2014-08-15T12:58:06.181Z,394
2014-08-15T12:58:22.104Z,393
2014-08-15T12:58:39.214Z,393
2014-08-15T12:58:56.339Z,393
2014-08-15T12:59:12.682Z,393
2014-08-15T12:59:29.856Z,393
2014-08-15T12:59:45.716Z,394
2014-08-15T13:00:01.575Z,394
2014-08-15T13:00:18.685Z,395
2014-08-15T13:00:35.859Z,396
2014-08-15T13:00:52.984Z,397
2014-08-15T13:01:09.468Z,398
2014-08-15T13:01:26.452Z,399
2014-08-15T13:01:42.362Z,401
2014-08-15T13:01:59.346Z,404
2014-08-15T13:02:15.846Z,406
2014-08-15T13:02:32.955Z,409
2014-08-15T13:02:49.489Z,413
2014-08-15T13:03:05.833Z,416
2014-08-15T13:03:22.333Z,421
2014-08-15T13:03:38.693Z,425
2014-08-15T13:03:55.196Z,429
2014-08-15T13:04:11.055Z,431
2014-08-15T13:04:27.555Z,432
2014-08-15T13:04:44.040Z,433
2014-08-15T13:05:01.183Z,436
2014-08-15T13:05:17.042Z,439
2014-08-15T13:05:34.167Z,442
2014-08-15T13:05:50.026Z,445
2014-08-15T13:06:08.436Z,448
2014-08-15T13:06:26.670Z,452
2014-08-15T13:06:44.311Z,455
2014-08-15T13:07:00.686Z,458
2014-08-15T13:07:17.671Z,462
2014-08-15T13:07:34.155Z,465
2014-08-15T13:07:50.655Z,469
2014-08-15T13:08:08.275Z,473
2014-08-15T13:08:26.540Z,477
2014-08-15T13:08:44.915Z,482
2014-08-15T13:09:03.172Z,491
2014-08-15T13:09:21.547Z,568
2014-08-15T13:09:39.953Z,573
2014-08-15T13:09:57.547Z,515
2014-08-15T13:10:15.805Z,577
2014-08-15T13:10:34.055Z,606
2014-08-15T13:10:51.680Z,613
2014-08-15T13:11:09.923Z,565
2014-08-15T13:11:26.969Z,532
2014-08-15T13:11:45.188Z,510
2014-08-15T13:12:01.673Z,506
2014-08-15T13:12:19.930Z,505
2014-08-15T13:12:38.164Z,505
2014-08-15T13:12:54.539Z,505
2014-08-15T13:13:12.180Z,505
2014-08-15T13:13:29.793Z,507
2014-08-15T13:13:47.449Z,510
2014-08-15T13:14:05.184Z,509
2014-08-15T13:14:22.797Z,509
2014-08-15T13:14:41.172Z,510
2014-08-15T13:14:58.781Z,510
2014-08-15T13:15:16.391Z,510
2014-08-15T13:15:34.020Z,510
2014-08-15T13:15:51.629Z,509
2014-08-15T13:16:09.879Z,509
2014-08-15T13:16:26.867Z,508
2014-08-15T13:16:43.227Z,507
2014-08-15T13:17:00.992Z,506
2014-08-15T13:17:17.961Z,505
2014-08-15T13:17:34.950Z,504
2014-08-15T13:17:51.934Z,503
2014-08-15T13:18:09.059Z,501
2014-08-15T13:18:26.184Z,500
2014-08-15T13:18:43.171Z,502
2014-08-15T13:19:00.156Z,499
2014-08-15T13:19:17.281Z,486
2014-08-15T13:19:35.031Z,477
2014-08-15T13:19:52.143Z,470
2014-08-15T13:20:09.909Z,463
2014-08-15T13:20:26.268Z,457
2014-08-15T13:20:44.018Z,451
2014-08-15T13:21:01.834Z,444
2014-08-15T13:21:18.271Z,439
2014-08-15T13:21:35.880Z,433
2014-08-15T13:21:52.865Z,426
2014-08-15T13:22:09.868Z,419
2014-08-15T13:22:26.352Z,413
2014-08-15T13:22:43.977Z,406
2014-08-15T13:23:00.477Z,399
2014-08-15T13:23:18.091Z,391
2014-08-15T13:23:33.966Z,385
2014-08-15T13:23:50.950Z,379
2014-08-15T13:24:08.575Z,373
2014-08-15T13:24:26.327Z,366
2014-08-15T13:24:43.296Z,359
2014-08-15T13:24:59.655Z,353
2014-08-15T13:25:15.514Z,348
2014-08-15T13:25:31.877Z,341
2014-08-15T13:25:48.252Z,336
2014-08-15T13:26:04.736Z,333
2014-08-15T13:26:21.236Z,326
2014-08-15T13:26:37.644Z,322
2014-08-15T13:26:55.316Z,318
2014-08-15T13:27:11.160Z,314
2014-08-15T13:27:27.644Z,310
2014-08-15T13:27:44.146Z,308
2014-08-15T13:28:00.631Z,305
2014-08-15T13:28:17.756Z,303
2014-08-15T13:28:34.740Z,303
2014-08-15T13:28:51.103Z,301
2014-08-15T13:29:08.837Z,300
2014-08-15T13:29:26.603Z,299
2014-08-15T13:29:44.337Z,299
2014-08-15T13:30:00.072Z,299
2014-08-15T13:30:16.572Z,298
2014-08-15T13:30:33.682Z,300
2014-08-15T13:30:51.463Z,300
2014-08-15T13:31:08.591Z,301
2014-08-15T13:31:24.997Z,301
2014-08-15T13:31:42.622Z,302
2014-08-15T13:31:58.482Z,301
2014-08-15T13:32:14.921Z,301
2014-08-15T13:32:32.609Z,302
2014-08-15T13:32:49.640Z,302
2014-08-15T13:33:07.969Z,303
2014-08-15T13:33:25.641Z,302
2014-08-15T13:33:42.188Z,302
2014-08-15T13:33:59.938Z,302
2014-08-15T13:34:15.799Z,303
2014-08-15T13:34:31.658Z,302
2014-08-15T13:34:48.783Z,303
2014-08-15T13:35:04.643Z,303
2014-08-15T13:35:21.146Z,304
2014-08-15T13:35:37.005Z,304
2014-08-15T13:35:54.130Z,305
2014-08-15T13:36:10.630Z,306
2014-08-15T13:36:26.492Z,308
2014-08-15T13:36:43.507Z,309
2014-08-15T13:36:59.367Z,310
2014-08-15T13:37:15.882Z,311
2014-08-15T13:37:33.009Z,312
2014-08-15T13:37:50.134Z,313
2014-08-15T13:38:06.634Z,315
2014-08-15T13:38:24.384Z,316
2014-08-15T13:38:40.246Z,318
2014-08-15T13:38:56.761Z,319
2014-08-15T13:39:13.917Z,320
2014-08-15T13:39:30.402Z,321
2014-08-15T13:39:47.530Z,323
2014-08-15T13:40:04.045Z,324
2014-08-15T13:40:21.155Z,326
2014-08-15T13:40:37.655Z,327
2014-08-15T13:40:54.140Z,327
2014-08-15T13:41:12.125Z,325
2014-08-15T13:41:30.140Z,326
2014-08-15T13:41:46.002Z,326
2014-08-15T13:42:03.752Z,325
2014-08-15T13:42:21.502Z,326
2014-08-15T13:42:38.627Z,327
2014-08-15T13:42:55.114Z,328
2014-08-15T13:43:11.614Z,321
2014-08-15T13:43:28.114Z,327
2014-08-15T13:43:43.973Z,326
2014-08-15T13:44:00.960Z,318
2014-08-15T13:44:17.460Z,308
2014-08-15T13:44:34.585Z,322
2014-08-15T13:44:50.944Z,338
2014-08-15T13:45:07.445Z,350
2014-08-15T13:45:23.945Z,382
2014-08-15T13:45:40.429Z,382
2014-08-15T13:45:57.554Z,389
2014-08-15T13:46:15.306Z,390
2014-08-15T13:46:32.431Z,390
2014-08-15T13:46:49.556Z,383
2014-08-15T13:47:06.681Z,386
2014-08-15T13:47:22.544Z,388
2014-08-15T13:47:39.669Z,387
2014-08-15T13:47:55.528Z,386
2014-08-15T13:48:12.028Z,380
2014-08-15T13:48:27.749Z,387
2014-08-15T13:48:44.874Z,377
